createdAt,value
2019-06-07T00:00:03.318Z,99.9
2019-06-07T00:05:03.438Z,99.9
2019-06-07T00:10:02.053Z,99.9
2019-06-07T00:15:03.047Z,99.9
2019-06-07T00:20:04.676Z,99.9
2019-06-07T00:25:05.935Z,99.9
2019-06-07T00:30:42.046Z,99.9
2019-06-07T00:35:02.697Z,99.9
2019-06-07T00:40:24.882Z,99.9
2019-06-07T00:45:03.127Z,99.9
2019-06-07T00:50:02.095Z,99.9
2019-06-07T00:55:03.340Z,99.9
2019-06-07T01:00:02.226Z,99.9
2019-06-07T01:05:25.997Z,99.9
2019-06-07T01:10:02.334Z,99.9
2019-06-07T01:15:01.520Z,99.9
2019-06-07T01:20:02.592Z,99.9
2019-06-07T01:25:01.572Z,99.9
2019-06-07T01:30:02.173Z,99.9
2019-06-07T01:35:03.476Z,99.9
2019-06-07T01:40:02.446Z,99.9
2019-06-07T01:45:04.249Z,99.9
2019-06-07T01:50:02.933Z,99.9
2019-06-07T01:55:01.905Z,99.9
2019-06-07T02:00:03.148Z,99.9
2019-06-07T02:05:02.314Z,99.9
2019-06-07T02:10:01.627Z,99.9
2019-06-07T02:15:04.112Z,99.9
2019-06-07T02:20:01.983Z,99.9
2019-06-07T02:25:45.816Z,99.9
2019-06-07T02:30:43.851Z,99.9
2019-06-07T02:35:01.627Z,99.9
2019-06-07T02:40:02.582Z,99.9
2019-06-07T02:45:01.906Z,99.9
2019-06-07T02:50:03.275Z,99.9
2019-06-07T02:55:02.238Z,99.9
2019-06-07T03:00:58.440Z,99.9
2019-06-07T03:05:01.629Z,99.9
2019-06-07T03:10:02.820Z,99.9
2019-06-07T03:15:01.885Z,99.9
2019-06-07T03:20:02.965Z,99.9
2019-06-07T03:25:01.871Z,99.9
2019-06-07T03:30:47.894Z,99.9
2019-06-07T03:35:02.044Z,99.9
2019-06-07T03:40:03.405Z,99.9
2019-06-07T03:45:02.213Z,99.9
2019-06-07T03:50:01.544Z,99.9
2019-06-07T03:55:02.434Z,99.9
2019-06-07T04:00:14.385Z,99.9
2019-06-07T04:05:02.887Z,99.9
2019-06-07T04:10:01.952Z,99.9
2019-06-07T04:15:03.042Z,99.9
2019-06-07T04:20:01.958Z,99.9
2019-06-07T04:25:13.310Z,99.9
2019-06-07T04:30:08.410Z,99.9
2019-06-07T04:35:03.729Z,99.9
2019-06-07T04:40:12.631Z,99.9
2019-06-07T04:45:01.740Z,99.9
2019-06-07T04:50:02.774Z,99.9
2019-06-07T04:55:01.848Z,99.9
2019-06-07T05:00:52.058Z,99.9
2019-06-07T05:05:02.043Z,99.9
2019-06-07T05:10:03.122Z,99.9
2019-06-07T05:15:02.065Z,99.9
2019-06-07T05:20:01.632Z,99.9
2019-06-07T05:25:05.015Z,99.9
2019-06-07T05:31:01.820Z,99.9
2019-06-07T05:35:02.821Z,99.9
2019-06-07T05:40:04.330Z,99.9
2019-06-07T05:45:03.001Z,99.9
2019-06-07T05:50:02.870Z,99.9
2019-06-07T05:55:03.094Z,99.9
2019-06-07T06:00:14.745Z,99.9
2019-06-07T06:05:03.620Z,99.9
2019-06-07T06:10:02.392Z,99.9
2019-06-07T06:15:01.456Z,99.9
2019-06-07T06:20:02.562Z,99.9
2019-06-07T06:25:34.952Z,99.9
2019-06-07T06:30:03.156Z,99.9
2019-06-07T06:35:02.339Z,99.9
2019-06-07T06:40:03.414Z,99.9
2019-06-07T06:45:02.251Z,99.9
2019-06-07T06:50:03.479Z,99.9
2019-06-07T06:55:04.592Z,99.9
2019-06-07T07:00:05.822Z,99.9
2019-06-07T07:05:02.261Z,99.9
2019-06-07T07:10:03.045Z,99.9
2019-06-07T07:15:02.678Z,99.9
2019-06-07T07:20:01.910Z,99.9
2019-06-07T07:25:03.120Z,99.9
2019-06-07T07:30:37.239Z,99.9
2019-06-07T07:35:05.424Z,99.9
2019-06-07T07:41:02.746Z,99.9
2019-06-07T07:45:01.654Z,99.9
2019-06-07T07:50:02.405Z,99.9
2019-06-07T07:55:01.399Z,99.9
2019-06-07T08:00:52.760Z,99.9
2019-06-07T08:05:42.731Z,99.9
2019-06-07T08:10:04.685Z,99.9
2019-06-07T08:15:04.171Z,99.9
2019-06-07T08:20:03.477Z,99.9
2019-06-07T08:25:06.902Z,99.9
2019-06-07T08:30:48.333Z,99.9
2019-06-07T08:35:07.127Z,99.9
2019-06-07T08:40:02.249Z,99.9
2019-06-07T08:45:05.891Z,99.9
2019-06-07T08:50:08.213Z,99.9
2019-06-07T08:55:05.432Z,99.9
2019-06-07T09:00:43.479Z,99.9
2019-06-07T09:05:12.702Z,99.9
2019-06-07T09:10:15.162Z,99.9
2019-06-07T09:15:23.085Z,99.9
2019-06-07T09:20:34.914Z,99.9
2019-06-07T09:25:20.500Z,99.9
2019-06-07T09:30:16.238Z,99.9
2019-06-07T09:35:16.920Z,99.9
2019-06-07T09:40:27.509Z,99.9
2019-06-07T09:45:09.618Z,99.9
2019-06-07T09:50:11.953Z,99.9
2019-06-07T09:55:22.453Z,99.9
2019-06-07T10:00:39.596Z,99.9
2019-06-07T10:05:13.382Z,99.9
2019-06-07T10:15:03.621Z,99.9
2019-06-07T10:20:04.002Z,96.7
2019-06-07T10:25:06.222Z,98.9
2019-06-07T10:30:12.170Z,96.6
2019-06-07T10:35:07.088Z,96.7
2019-06-07T10:40:03.171Z,95
2019-06-07T10:45:04.817Z,92
2019-06-07T10:50:06.205Z,93.3
2019-06-07T10:55:02.718Z,93.3
2019-06-07T11:00:05.209Z,94
2019-06-07T11:05:03.546Z,91.1
2019-06-07T11:10:15.367Z,90
2019-06-07T11:15:02.533Z,90.2
2019-06-07T11:20:02.326Z,90.4
2019-06-07T11:25:03.608Z,89
2019-06-07T11:30:12.765Z,86.4
2019-06-07T11:35:02.539Z,86.2
2019-06-07T11:40:02.106Z,85.4
2019-06-07T11:45:03.503Z,88.2
2019-06-07T11:50:04.879Z,85.3
2019-06-07T11:55:01.583Z,85.6
2019-06-07T12:00:02.470Z,85.4
2019-06-07T12:05:01.851Z,88.8
2019-06-07T12:10:02.458Z,90.4
2019-06-07T12:15:01.991Z,85
2019-06-07T12:20:03.268Z,81.5
2019-06-07T12:25:04.994Z,87.9
2019-06-07T12:30:20.186Z,84.8
2019-06-07T12:35:01.494Z,86.6
2019-06-07T12:40:02.286Z,82.1
2019-06-07T12:45:03.253Z,84.9
2019-06-07T12:50:02.308Z,75.6
2019-06-07T12:55:04.232Z,80
2019-06-07T13:00:03.160Z,79.9
2019-06-07T13:05:05.174Z,81.2
2019-06-07T13:10:12.839Z,80.9
2019-06-07T13:15:07.134Z,79.3
2019-06-07T13:20:01.586Z,79.3
2019-06-07T13:25:02.568Z,76.1
2019-06-07T13:30:10.910Z,73.8
2019-06-07T13:35:02.924Z,74.2
2019-06-07T13:40:02.031Z,74.9
2019-06-07T13:45:05.920Z,68.9
2019-06-07T13:50:01.901Z,68.8
2019-06-07T13:55:03.244Z,64.2
2019-06-07T14:00:11.414Z,65.3
2019-06-07T14:05:02.840Z,62.7
2019-06-07T14:10:01.934Z,61.4
2019-06-07T14:15:02.756Z,62.5
2019-06-07T14:20:02.840Z,57.9
2019-06-07T14:25:03.329Z,56
2019-06-07T14:30:02.179Z,56.4
2019-06-07T14:35:01.536Z,56.4
2019-06-07T14:40:02.853Z,56
2019-06-07T14:45:06.528Z,55.1
2019-06-07T14:50:03.139Z,53.5
2019-06-07T14:55:02.076Z,50.6
2019-06-07T15:00:12.127Z,51.2
2019-06-07T15:05:02.363Z,49.1
2019-06-07T15:10:01.785Z,48.8
2019-06-07T15:15:04.979Z,49.4
2019-06-07T15:20:01.816Z,49.4
2019-06-07T15:25:03.080Z,49.5
2019-06-07T15:30:11.410Z,48.5
2019-06-07T15:35:03.500Z,47.5
2019-06-07T15:40:02.459Z,48.9
2019-06-07T15:45:01.979Z,50.4
2019-06-07T15:50:05.276Z,50.1
2019-06-07T15:55:01.719Z,50
2019-06-07T16:00:03.902Z,49.7
2019-06-07T16:05:04.516Z,48.4
2019-06-07T16:10:01.564Z,48.3
2019-06-07T16:15:02.598Z,47.5
2019-06-07T16:20:01.707Z,49.1
2019-06-07T16:25:02.969Z,49.1
2019-06-07T16:30:09.678Z,49.1
2019-06-07T16:35:05.678Z,48.9
2019-06-07T16:40:02.387Z,48.8
2019-06-07T16:45:01.939Z,49.4
2019-06-07T16:50:02.899Z,49.9
2019-06-07T16:55:01.973Z,50.7
2019-06-07T17:00:05.735Z,51.8
2019-06-07T17:05:02.751Z,51.8
2019-06-07T17:10:01.658Z,52.1
2019-06-07T17:15:02.855Z,53.2
2019-06-07T17:20:02.288Z,53.4
2019-06-07T17:25:01.474Z,55
2019-06-07T17:30:02.398Z,55
2019-06-07T17:35:01.628Z,54.8
2019-06-07T17:40:02.628Z,55.6
2019-06-07T17:45:01.773Z,55.6
2019-06-07T17:50:03.868Z,57.1
2019-06-07T17:55:02.196Z,58.5
2019-06-07T18:00:28.950Z,59.2
2019-06-07T18:05:02.593Z,59.4
2019-06-07T18:10:01.957Z,60.6
2019-06-07T18:15:02.999Z,62.2
2019-06-07T18:20:01.904Z,65.7
2019-06-07T18:25:02.925Z,65
2019-06-07T18:30:12.068Z,67.6
2019-06-07T18:35:02.705Z,69.8
2019-06-07T18:40:02.054Z,72.9
2019-06-07T18:45:03.469Z,74.2
2019-06-07T18:50:02.296Z,77.7
2019-06-07T18:55:01.437Z,83.3
2019-06-07T19:00:02.338Z,85.5
2019-06-07T19:05:01.668Z,88.9
2019-06-07T19:10:12.852Z,93.1
2019-06-07T19:15:01.753Z,93.2
2019-06-07T19:20:03.204Z,94.9
2019-06-07T19:25:02.152Z,97.2
2019-06-07T19:30:06.711Z,99.9
2019-06-07T19:35:02.610Z,99.9
2019-06-07T19:40:03.092Z,99.9
2019-06-07T19:45:31.095Z,99.9
2019-06-07T19:50:12.228Z,99.9
2019-06-07T19:55:09.307Z,99.9
2019-06-07T20:00:14.604Z,99.9
2019-06-07T20:05:06.924Z,99.9
2019-06-07T20:10:04.714Z,99.9
2019-06-07T20:15:28.721Z,99.9
2019-06-07T20:20:04.734Z,99.9
2019-06-07T20:25:05.220Z,99.9
2019-06-07T20:30:02.633Z,99.9
2019-06-07T20:35:04.046Z,99.9
2019-06-07T20:40:24.008Z,99.9
2019-06-07T20:45:04.210Z,99.9
2019-06-07T20:50:02.602Z,99.9
2019-06-07T20:55:04.828Z,99.9
2019-06-07T21:00:20.885Z,99.9
2019-06-07T21:05:03.636Z,99.9
2019-06-07T21:10:09.012Z,99.9
2019-06-07T21:15:11.744Z,99.9
2019-06-07T21:20:10.272Z,99.9
2019-06-07T21:25:03.346Z,99.9
2019-06-07T21:30:03.659Z,99.9
2019-06-07T21:35:02.076Z,99.9
2019-06-07T21:40:04.375Z,99.9
2019-06-07T21:45:06.200Z,99.9
2019-06-07T21:50:06.494Z,99.9
2019-06-07T21:55:03.102Z,99.9
2019-06-07T22:00:05.239Z,99.9
2019-06-07T22:05:03.624Z,99.9
2019-06-07T22:10:01.634Z,99.9
2019-06-07T22:15:22.748Z,99.9
2019-06-07T22:20:01.715Z,99.9
2019-06-07T22:25:02.879Z,99.9
2019-06-07T22:30:01.798Z,99.9
2019-06-07T22:35:03.512Z,99.9
2019-06-07T22:40:02.221Z,99.9
2019-06-07T22:45:01.537Z,99.9
2019-06-07T22:50:02.643Z,99.9
2019-06-07T22:55:01.968Z,99.9
2019-06-07T23:00:12.257Z,99.9
2019-06-07T23:05:05.081Z,99.9
2019-06-07T23:10:02.904Z,99.9
2019-06-07T23:15:02.597Z,99.9
2019-06-07T23:20:03.428Z,99.9
2019-06-07T23:25:01.882Z,99.9
2019-06-07T23:30:09.069Z,99.9
2019-06-07T23:35:01.516Z,99.9
2019-06-07T23:40:02.775Z,99.9
2019-06-07T23:45:04.555Z,99.9
2019-06-07T23:50:03.362Z,99.9
2019-06-07T23:55:12.060Z,99.9
